Blackduck, Minnesota
Current Conditions -  °F | °C
As of 5:13 PM on Wednesday 22 Oct 2014 (Local Time) from KBJI Reporting Station
Broken Clouds Broken Clouds  
Wind Chill: 58°   Ceiling: 3800
Heat Index: 58°   Visibility: 10mi
Dew Point: 44°   Wind: 14mph
Humidity: 59%   Direction: 170°S
Pressure: 29.9"   Gusts: 22mph
Location:  47.73°N, 94.55°W
Report Text: KBJI 222213Z AUTO 17012G19KT 10SM BKN038 14/06 A2990 RMK AO2 LTG DSNT SE T01430064
Loading
Personal Weather Stations






























Interactive Weather Map
Tropical Storm Tracking
New forecast layout! Learn more

10-Day Weather Forecast

Advertisements
Track Severe Weather on mobile